Time;durP1;ratioP1;P1;durP2;ratioP2;P2;SDS_P1;SDS_P2;PMS_P1;PMS_P2;Temp;Humidity;BMP_temperature;BMP_pressure;BME280_temperature;BME280_humidity;BME280_pressure;Samples;Min_cycle;Max_cycle;Signal;HPM_P1;HPM_P2
2022/09/15 00:02:15;;;;;;;3.90;2.90;;;;;;;;;;4959212;28;20434;-89
2022/09/15 00:04:41;;;;;;;2.97;2.43;;;;;;;;;;4956784;28;20474;-88
2022/09/15 00:07:07;;;;;;;3.20;2.30;;;;;;;;;;4963570;28;20438;-89
2022/09/15 00:09:34;;;;;;;5.27;3.60;;;;;;;;;;4977440;28;21061;-86
2022/09/15 00:12:00;;;;;;;3.73;2.87;;;;;;;;;;4958464;28;20580;-89
2022/09/15 00:14:26;;;;;;;5.30;2.13;;;;;;;;;;4956793;28;20935;-88
2022/09/15 00:16:52;;;;;;;2.60;1.97;;;;;;;;;;4959667;28;20505;-87
2022/09/15 00:19:18;;;;;;;3.23;2.80;;;;;;;;;;4963237;28;20500;-87
2022/09/15 00:21:44;;;;;;;6.20;2.30;;;18.00;99.90;;;;;;4974744;28;21060;-88
2022/09/15 00:24:10;;;;;;;2.60;2.00;;;;;;;;;;4959539;28;20434;-87
2022/09/15 00:26:37;;;;;;;6.90;2.57;;;;;;;;;;4965746;28;20447;-89
2022/09/15 00:29:03;;;;;;;2.70;2.00;;;18.00;99.90;;;;;;4958224;28;20459;-83
2022/09/15 00:31:30;;;;;;;3.47;1.90;;;18.00;99.90;;;;;;4954464;28;20451;-82
2022/09/15 00:34:01;;;;;;;3.90;1.50;;;18.00;99.90;;;;;;4954939;28;21255;-87
2022/09/15 00:36:27;;;;;;;2.40;1.57;;;;;;;;;;4954443;28;20482;-84
2022/09/15 00:38:53;;;;;;;1.97;1.50;;;;;;;;;;4968313;28;20441;-83
2022/09/15 00:41:20;;;;;;;6.00;1.47;;;18.00;99.90;;;;;;4957291;28;20528;-83
2022/09/15 00:43:46;;;;;;;2.00;1.30;;;;;;;;;;4966613;28;20456;-83
2022/09/15 00:46:14;;;;;;;1.67;1.57;;;17.80;99.90;;;;;;4957016;28;20435;-83
2022/09/15 00:48:45;;;;;;;2.57;1.20;;;17.80;99.90;;;;;;4963497;28;20460;-84
2022/09/15 00:51:15;;;;;;;2.47;1.63;;;17.70;99.90;;;;;;4972547;28;20443;-87
2022/09/15 00:53:41;;;;;;;1.50;1.40;;;17.80;99.90;;;;;;4955397;28;20441;-82
2022/09/15 00:56:10;;;;;;;2.60;1.33;;;17.70;99.90;;;;;;4977962;28;20479;-82
2022/09/15 00:58:42;;;;;;;3.77;1.60;;;17.70;99.90;;;;;;5007886;22;20526;-87
2022/09/15 01:01:09;;;;;;;1.90;1.37;;;17.70;99.90;;;;;;4988883;28;20443;-88
2022/09/15 01:03:35;;;;;;;2.90;1.70;;;;;;;;;;4968803;28;20448;-88
2022/09/15 01:06:10;;;;;;;3.50;1.10;;;17.70;99.90;;;;;;4974551;28;20445;-88
2022/09/15 01:08:47;;;;;;;5.60;1.77;;;17.80;99.90;;;;;;4973389;28;20460;-87
2022/09/15 01:11:15;;;;;;;3.47;1.47;;;;;;;;;;4992008;28;20444;-87
2022/09/15 01:13:41;;;;;;;1.70;1.57;;;;;;;;;;4989388;28;20445;-86
2022/09/15 01:16:08;;;;;;;1.00;0.90;;;;;;;;;;4973769;28;20626;-87
2022/09/15 01:19:00;;;;;;;5.30;1.30;;;17.60;99.90;;;;;;4969451;28;20473;-87
2022/09/15 01:21:34;;;;;;;3.20;1.93;;;17.60;99.90;;;;;;4970023;28;21802;-86
2022/09/15 01:24:09;;;;;;;9.43;1.77;;;17.60;99.90;;;;;;4985985;28;20444;-88
2022/09/15 01:26:35;;;;;;;2.43;1.80;;;;;;;;;;4988156;28;20968;-88
2022/09/15 01:29:38;;;;;;;3.37;1.57;;;17.40;99.90;;;;;;4976057;28;20463;-88
2022/09/15 01:35:43;;;;;;;4.93;1.77;;;17.30;99.90;;;;;;5005852;28;21427;-87
2022/09/15 01:38:27;;;;;;;3.73;2.00;;;17.30;99.90;;;;;;4989915;28;20460;-88
2022/09/15 01:41:03;;;;;;;4.60;1.33;;;17.30;99.90;;;;;;5006669;28;20445;-87
2022/09/15 01:43:31;;;;;;;2.17;1.67;;;17.30;99.90;;;;;;4982059;28;20533;-87
2022/09/15 01:45:58;;;;;;;2.70;1.93;;;17.30;99.90;;;;;;4991648;28;22144;-88
2022/09/15 01:48:26;;;;;;;2.10;1.77;;;17.10;99.90;;;;;;4975563;28;20848;-88
2022/09/15 01:50:55;;;;;;;2.63;1.90;;;17.30;99.90;;;;;;4992420;28;20539;-86
2022/09/15 01:53:21;;;;;;;2.93;1.73;;;17.40;99.90;;;;;;4992993;28;20442;-86
2022/09/15 01:56:08;;;;;;;2.97;1.60;;;17.40;99.90;;;;;;4993657;28;20470;-87
2022/09/15 01:58:37;;;;;;;9.10;1.57;;;17.40;99.90;;;;;;4970250;28;20563;-88
2022/09/15 02:01:17;;;;;;;3.90;1.60;;;17.40;99.90;;;;;;4989865;28;20429;-87
2022/09/15 02:03:43;;;;;;;2.50;1.47;;;;;;;;;;4970918;28;20448;-86
2022/09/15 02:06:39;;;;;;;2.37;1.20;;;17.50;99.90;;;;;;4978446;28;20449;-87
2022/09/15 02:09:18;;;;;;;2.70;1.80;;;17.60;99.90;;;;;;4956988;28;20477;-86
2022/09/15 02:12:09;;;;;;;9.47;1.70;;;17.70;99.90;;;;;;4978188;28;21136;-87
2022/09/15 02:14:51;;;;;;;7.63;1.80;;;17.90;99.90;;;;;;4945993;28;20503;-88
2022/09/15 02:17:19;;;;;;;6.27;1.97;;;17.80;99.90;;;;;;4982411;28;20518;-87
2022/09/15 02:20:02;;;;;;;1.90;1.70;;;17.80;99.90;;;;;;4992010;28;20671;-86
2022/09/15 02:22:32;;;;;;;2.70;1.90;;;17.90;99.90;;;;;;4971384;28;20454;-88
2022/09/15 02:25:13;;;;;;;4.10;2.17;;;17.80;99.90;;;;;;4992386;28;20438;-88
2022/09/15 02:27:46;;;;;;;2.20;1.70;;;17.90;99.90;;;;;;4991351;28;20495;-86
2022/09/15 02:30:15;;;;;;;1.93;1.77;;;18.00;99.90;;;;;;4974790;28;20739;-86
2022/09/15 02:32:47;;;;;;;2.77;1.70;;;17.90;99.90;;;;;;4976014;28;20984;-86
2022/09/15 02:35:14;;;;;;;4.77;1.93;;;18.00;99.90;;;;;;4983162;28;20481;-86
2022/09/15 02:37:40;;;;;;;6.20;2.00;;;;;;;;;;4986602;28;20461;-86
2022/09/15 02:40:07;;;;;;;2.17;1.97;;;18.00;99.90;;;;;;4985327;28;20541;-85
2022/09/15 02:42:33;;;;;;;3.30;1.90;;;;;;;;;;4985317;28;20445;-86
2022/09/15 02:44:59;;;;;;;2.73;1.57;;;18.00;99.90;;;;;;4990347;28;20853;-86
2022/09/15 02:47:27;;;;;;;2.93;1.30;;;18.10;99.90;;;;;;4989548;28;20453;-86
2022/09/15 02:49:53;;;;;;;6.70;2.00;;;18.10;99.90;;;;;;4967558;28;22613;-86
2022/09/15 02:52:19;;;;;;;2.20;1.50;;;;;;;;;;4989858;28;20444;-86
2022/09/15 02:54:46;;;;;;;6.03;2.30;;;;;;;;;;4973917;28;21320;-86
2022/09/15 02:57:15;;;;;;;6.30;2.80;;;;;;;;;;4990814;28;20481;-87
2022/09/15 03:02:26;;;;;;;2.30;1.80;;;;;;;;;;4994872;28;20860;-86
2022/09/15 03:04:52;;;;;;;3.17;2.13;;;;;;;;;;4997559;28;20477;-86
2022/09/15 03:07:18;;;;;;;6.37;2.77;;;;;;;;;;4997587;28;20465;-86
2022/09/15 03:09:44;;;;;;;2.30;1.67;;;;;;;;;;4995257;28;20426;-86
2022/09/15 03:12:10;;;;;;;2.60;1.57;;;;;;;;;;4989998;28;20552;-85
2022/09/15 03:14:37;;;;;;;3.90;1.90;;;;;;;;;;4979362;28;20501;-86
2022/09/15 03:17:03;;;;;;;2.33;1.90;;;;;;;;;;4987911;28;20487;-86
2022/09/15 03:19:29;;;;;;;4.93;2.17;;;;;;;;;;4983992;28;20460;-86
2022/09/15 03:21:55;;;;;;;2.97;2.40;;;;;;;;;;4988886;28;20453;-86
2022/09/15 03:24:22;;;;;;;4.20;1.93;;;;;;;;;;4994476;28;20437;-86
2022/09/15 03:26:48;;;;;;;3.43;2.17;;;;;;;;;;4985379;28;20430;-88
2022/09/15 03:29:14;;;;;;;2.23;2.00;;;;;;;;;;4990014;28;20457;-86
2022/09/15 03:31:40;;;;;;;3.57;2.10;;;;;;;;;;4968719;28;20446;-86
2022/09/15 03:34:06;;;;;;;2.97;2.67;;;;;;;;;;4985962;28;20441;-87
2022/09/15 03:36:32;;;;;;;2.80;1.87;;;;;;;;;;4985731;28;20485;-87
2022/09/15 03:38:58;;;;;;;3.00;2.00;;;18.00;99.90;;;;;;4981743;28;21043;-87
2022/09/15 03:41:25;;;;;;;6.77;2.17;;;17.90;99.90;;;;;;4973104;28;20527;-87
2022/09/15 03:43:51;;;;;;;2.27;1.70;;;;;;;;;;4966672;28;20437;-88
2022/09/15 03:46:17;;;;;;;4.43;2.07;;;;;;;;;;4968378;28;20441;-86
2022/09/15 03:48:44;;;;;;;4.33;2.27;;;17.90;99.90;;;;;;4985238;28;20457;-87
2022/09/15 03:51:10;;;;;;;2.67;1.90;;;;;;;;;;4971218;28;21244;-87
2022/09/15 03:53:38;;;;;;;3.90;2.03;;;17.90;99.90;;;;;;4984142;28;20441;-87
2022/09/15 03:56:08;;;;;;;2.80;2.27;;;17.70;99.90;;;;;;4985534;28;20552;-88
2022/09/15 03:58:34;;;;;;;3.53;1.83;;;;;;;;;;4980446;28;20469;-87
2022/09/15 04:01:00;;;;;;;2.73;1.73;;;;;;;;;;4982852;28;20433;-88
2022/09/15 04:03:26;;;;;;;4.00;2.20;;;;;;;;;;4973540;28;20437;-86
2022/09/15 04:05:52;;;;;;;2.57;1.90;;;;;;;;;;4987619;28;20442;-87
2022/09/15 04:08:18;;;;;;;2.17;1.97;;;;;;;;;;4981931;28;20575;-87
2022/09/15 04:10:44;;;;;;;3.40;1.70;;;;;;;;;;4983793;28;20445;-87
2022/09/15 04:13:10;;;;;;;5.20;2.10;;;;;;;;;;4983722;28;20437;-87
2022/09/15 04:15:36;;;;;;;4.10;2.27;;;;;;;;;;4986027;28;20918;-87
2022/09/15 04:18:03;;;;;;;5.80;2.30;;;;;;;;;;4972372;28;20473;-87
2022/09/15 04:20:29;;;;;;;4.17;1.53;;;;;;;;;;4986651;28;20436;-87
2022/09/15 04:22:55;;;;;;;2.50;1.70;;;;;;;;;;4971233;28;20434;-88
2022/09/15 04:25:21;;;;;;;2.53;1.87;;;;;;;;;;4985054;28;20434;-88
2022/09/15 04:27:47;;;;;;;5.27;2.03;;;;;;;;;;4984392;28;20457;-87
2022/09/15 04:30:13;;;;;;;3.30;2.03;;;;;;;;;;4986034;28;20441;-88
2022/09/15 04:32:40;;;;;;;2.90;2.00;;;;;;;;;;4988136;28;20469;-88
2022/09/15 04:35:07;;;;;;;2.43;1.90;;;;;;;;;;4979002;28;20455;-88
2022/09/15 04:37:33;;;;;;;2.77;1.40;;;;;;;;;;4984064;28;20457;-88
2022/09/15 04:40:00;;;;;;;2.20;2.00;;;;;;;;;;4975304;28;20438;-88
2022/09/15 04:42:26;;;;;;;3.63;2.70;;;;;;;;;;4987695;28;21282;-88
2022/09/15 04:44:51;;;;;;;4.23;2.03;;;;;;;;;;4990081;28;20582;-88
2022/09/15 04:47:18;;;;;;;5.47;1.90;;;;;;;;;;4968091;28;20536;-88
2022/09/15 04:49:44;;;;;;;2.60;1.70;;;;;;;;;;4979477;28;20921;-88
2022/09/15 04:52:10;;;;;;;3.70;2.30;;;;;;;;;;4979997;28;20527;-88
2022/09/15 04:54:36;;;;;;;3.33;1.73;;;18.00;99.90;;;;;;4998289;28;20214;-88
2022/09/15 04:57:01;;;;;;;7.53;2.20;;;18.00;99.90;;;;;;4989780;28;20488;-88
2022/09/15 04:59:27;;;;;;;3.40;2.20;;;18.00;99.90;;;;;;4996835;28;20201;-88
2022/09/15 05:01:54;;;;;;;2.00;1.73;;;17.90;99.90;;;;;;4989447;28;20187;-89
2022/09/15 05:04:20;;;;;;;3.30;2.03;;;17.90;99.90;;;;;;4981452;28;20190;-88
2022/09/15 05:06:46;;;;;;;2.23;1.87;;;17.80;99.90;;;;;;4988674;28;20456;-88
2022/09/15 05:09:13;;;;;;;3.20;2.10;;;17.80;99.90;;;;;;4976146;28;20450;-88
2022/09/15 05:11:39;;;;;;;2.67;2.10;;;;;;;;;;4978537;28;20557;-89
2022/09/15 05:14:05;;;;;;;4.27;2.37;;;;;;;;;;4979416;28;20439;-88
2022/09/15 05:16:30;;;;;;;4.90;2.43;;;17.70;99.90;;;;;;4987358;28;20458;-87
2022/09/15 05:18:58;;;;;;;2.40;2.10;;;17.70;99.90;;;;;;4997472;28;20465;-87
2022/09/15 05:21:24;;;;;;;2.33;2.13;;;17.70;99.90;;;;;;4994803;28;20191;-88
2022/09/15 05:23:51;;;;;;;4.67;2.07;;;17.70;99.90;;;;;;4992134;28;20441;-87
2022/09/15 05:26:19;;;;;;;4.70;1.90;;;17.70;99.90;;;;;;4991065;28;20449;-86
2022/09/15 05:28:45;;;;;;;4.47;2.20;;;17.70;99.90;;;;;;4973729;28;20989;-88
2022/09/15 05:31:22;;;;;;;8.57;2.67;;;17.70;99.90;;;;;;4996758;28;20444;-89
2022/09/15 05:33:49;;;;;;;3.70;2.23;;;17.70;99.90;;;;;;4999570;28;20410;-87
2022/09/15 05:36:16;;;;;;;3.63;2.00;;;;;;;;;;4995339;28;20501;-89
2022/09/15 05:38:42;;;;;;;4.63;2.57;;;;;;;;;;4981977;28;21404;-88
2022/09/15 05:41:11;;;;;;;3.67;2.17;;;17.70;99.90;;;;;;4990719;28;21174;-89
2022/09/15 05:43:38;;;;;;;5.50;1.70;;;17.70;99.90;;;;;;4984633;28;21067;-88
2022/09/15 05:46:04;;;;;;;4.47;2.23;;;17.70;99.90;;;;;;4982336;28;20464;-88
2022/09/15 05:48:30;;;;;;;4.00;2.30;;;17.70;99.90;;;;;;5000183;28;20551;-88
2022/09/15 05:50:57;;;;;;;4.77;2.30;;;;;;;;;;4992689;28;20529;-88
2022/09/15 05:53:23;;;;;;;4.13;2.53;;;17.70;99.90;;;;;;4992176;28;20461;-88
2022/09/15 05:55:56;;;;;;;9.03;2.47;;;17.50;99.90;;;;;;4989795;28;20552;-89
2022/09/15 05:58:22;;;;;;;3.80;2.23;;;;;;;;;;4996743;28;20465;-89
2022/09/15 06:00:48;;;;;;;3.77;2.10;;;17.40;99.90;;;;;;4997728;28;20434;-88
2022/09/15 06:03:14;;;;;;;4.83;2.13;;;17.40;99.90;;;;;;4986336;28;20528;-87
2022/09/15 06:05:40;;;;;;;3.90;2.60;;;17.40;99.90;;;;;;4997034;28;20194;-88
2022/09/15 06:08:06;;;;;;;6.40;2.23;;;;;;;;;;5011239;28;20462;-88
2022/09/15 06:10:32;;;;;;;7.93;3.27;;;;;;;;;;4993192;28;20445;-87
2022/09/15 06:12:58;;;;;;;3.40;2.60;;;;;;;;;;5003156;28;20434;-88
2022/09/15 06:15:24;;;;;;;4.80;3.20;;;;;;;;;;4985340;28;20465;-88
2022/09/15 06:17:51;;;;;;;3.20;2.40;;;17.50;99.90;;;;;;4994668;28;20929;-87
2022/09/15 06:20:20;;;;;;;2.40;2.20;;;17.50;99.90;;;;;;5004109;28;20468;-87
2022/09/15 06:22:45;;;;;;;2.90;2.50;;;17.50;99.90;;;;;;5018893;28;20434;-87
2022/09/15 06:25:12;;;;;;;8.40;3.53;;;17.50;99.90;;;;;;5012664;28;20445;-86
2022/09/15 06:27:38;;;;;;;4.30;2.80;;;;;;;;;;4998385;28;20211;-86
2022/09/15 06:30:04;;;;;;;4.27;2.93;;;17.60;99.90;;;;;;4984403;28;20441;-88
2022/09/15 06:32:30;;;;;;;3.70;2.30;;;;;;;;;;4992644;28;20815;-86
2022/09/15 06:34:56;;;;;;;6.80;3.17;;;;;;;;;;4993926;28;20438;-87
2022/09/15 06:37:21;;;;;;;4.00;2.70;;;;;;;;;;4979775;28;21012;-86
2022/09/15 06:39:48;;;;;;;5.40;2.80;;;;;;;;;;4998068;28;20422;-87
2022/09/15 06:42:14;;;;;;;3.40;2.80;;;;;;;;;;4997333;28;20426;-88
2022/09/15 06:44:40;;;;;;;4.10;2.67;;;;;;;;;;4991245;28;20438;-87
2022/09/15 06:47:06;;;;;;;3.10;2.70;;;;;;;;;;4991000;28;20452;-87
2022/09/15 06:49:33;;;;;;;4.40;2.50;;;18.00;99.90;;;;;;5002456;28;20414;-88
2022/09/15 06:52:01;;;;;;;6.77;2.97;;;17.90;99.90;;;;;;4991024;28;20499;-87
2022/09/15 06:54:27;;;;;;;3.20;2.33;;;;;;;;;;4991611;28;20442;-87
2022/09/15 06:56:53;;;;;;;2.70;2.50;;;;;;;;;;4981552;28;20458;-87
2022/09/15 06:59:19;;;;;;;5.90;3.07;;;;;;;;;;4995777;28;20444;-87
2022/09/15 07:01:45;;;;;;;3.90;2.17;;;;;;;;;;4995861;28;20461;-87
2022/09/15 07:04:11;;;;;;;3.87;2.10;;;;;;;;;;4993197;28;20430;-87
2022/09/15 07:06:38;;;;;;;4.80;2.90;;;17.60;99.90;;;;;;4991694;28;20819;-88
2022/09/15 07:09:05;;;;;;;4.97;2.70;;;17.60;99.90;;;;;;4998999;28;20450;-88
2022/09/15 07:11:33;;;;;;;3.60;2.00;;;17.50;99.90;;;;;;4993624;28;20484;-87
2022/09/15 07:13:59;;;;;;;2.17;1.70;;;;;;;;;;4997002;28;20466;-88
2022/09/15 07:16:25;;;;;;;2.63;2.40;;;;;;;;;;4996566;28;20513;-88
2022/09/15 07:18:54;;;;;;;5.60;2.10;;;17.50;99.90;;;;;;4990528;28;20460;-87
2022/09/15 07:21:20;;;;;;;1.90;1.70;;;;;;;;;;4999624;28;20524;-87
2022/09/15 07:23:47;;;;;;;2.30;1.33;;;17.50;99.90;;;;;;4994025;28;20425;-87
2022/09/15 07:26:18;;;;;;;4.83;1.80;;;17.30;99.90;;;;;;4998262;28;20458;-87
2022/09/15 07:28:48;;;;;;;2.80;1.90;;;17.50;99.90;;;;;;4994787;28;20457;-86
2022/09/15 07:31:16;;;;;;;1.47;1.20;;;17.40;99.90;;;;;;4983312;28;21195;-87
2022/09/15 07:33:42;;;;;;;1.93;1.10;;;;;;;;;;4997690;28;20455;-85
2022/09/15 07:36:09;;;;;;;1.63;1.33;;;17.40;99.90;;;;;;5025760;22;20497;-83
2022/09/15 07:38:38;;;;;;;1.20;1.10;;;17.30;99.90;;;;;;4989540;28;20418;-83
2022/09/15 07:41:05;;;;;;;1.70;1.13;;;17.30;99.90;;;;;;4999206;28;20485;-83
2022/09/15 07:43:31;;;;;;;1.73;1.20;;;;;;;;;;4982109;28;20430;-83
2022/09/15 07:45:57;;;;;;;2.83;1.17;;;;;;;;;;4990015;28;20970;-84
2022/09/15 07:48:23;;;;;;;1.50;0.70;;;;;;;;;;4995339;28;20841;-84
2022/09/15 07:50:49;;;;;;;1.30;0.53;;;17.10;99.90;;;;;;5001023;28;20433;-82
2022/09/15 07:53:15;;;;;;;1.87;0.90;;;;;;;;;;4980255;28;20745;-82
2022/09/15 07:55:41;;;;;;;2.67;0.83;;;;;;;;;;4984823;28;20262;-82
2022/09/15 07:58:06;;;;;;;2.07;0.90;;;16.70;99.90;;;;;;4982146;28;20493;-83
2022/09/15 08:00:32;;;;;;;1.40;1.13;;;15.60;99.90;;;;;;4998039;28;20988;-83
2022/09/15 08:02:58;;;;;;;1.50;1.40;;;;;;;;;;4993194;28;20182;-81
2022/09/15 08:05:26;;;;;;;1.53;0.87;;;16.40;99.90;;;;;;4998937;28;20191;-81
2022/09/15 08:07:53;;;;;;;2.93;1.00;;;;;;;;;;4981797;28;20446;-83
2022/09/15 08:10:18;;;;;;;2.90;1.60;;;16.40;99.90;;;;;;4997305;28;20517;-82
2022/09/15 08:12:44;;;;;;;2.80;1.00;;;;;;;;;;4994295;28;20532;-81
2022/09/15 08:15:10;;;;;;;1.93;1.33;;;;;;;;;;4981216;28;20190;-82
2022/09/15 08:17:36;;;;;;;3.60;1.63;;;16.40;99.90;;;;;;4998929;28;20454;-83
2022/09/15 08:20:02;;;;;;;2.00;1.30;;;16.50;99.90;;;;;;4978541;28;20475;-83
2022/09/15 08:22:27;;;;;;;2.77;1.40;;;16.50;99.90;;;;;;4998878;28;20179;-84
2022/09/15 08:24:53;;;;;;;1.93;1.00;;;16.50;99.90;;;;;;4998777;28;20430;-82
2022/09/15 08:27:19;;;;;;;1.60;1.50;;;;;;;;;;4982552;28;20203;-82
2022/09/15 08:29:45;;;;;;;2.50;1.30;;;;;;;;;;4982758;28;20187;-84
2022/09/15 08:32:10;;;;;;;1.93;1.20;;;;;;;;;;4976733;28;20977;-82
2022/09/15 08:34:36;;;;;;;5.00;1.93;;;16.30;99.90;;;;;;5000050;28;20453;-80
2022/09/15 08:37:02;;;;;;;2.80;1.47;;;;;;;;;;4983582;28;20462;-83
2022/09/15 08:39:27;;;;;;;4.30;1.60;;;16.00;99.90;;;;;;4980002;28;20187;-83
2022/09/15 08:41:54;;;;;;;2.23;1.80;;;16.00;99.90;;;;;;4999502;28;20445;-82
2022/09/15 08:44:31;;;;;;;2.33;1.87;;;16.00;99.90;;;;;;5000110;28;20566;-83
2022/09/15 08:47:07;;;;;;;4.43;1.80;;;15.90;99.90;;;;;;4984359;28;20461;-83
2022/09/15 08:49:41;;;;;;;2.73;1.90;;;15.80;99.90;;;;;;4987258;28;20443;-81
2022/09/15 08:52:22;;;;;;;2.77;1.80;;;15.80;99.90;;;;;;4987359;28;21091;-82
2022/09/15 08:54:51;;;;;;;2.80;1.93;;;15.80;99.90;;;;;;4999596;28;20897;-83
2022/09/15 08:57:21;;;;;;;8.93;2.30;;;15.60;99.90;;;;;;4985157;28;20470;-83
2022/09/15 08:59:47;;;;;;;3.83;3.20;;;15.60;99.90;;;;;;4980299;28;20425;-84
2022/09/15 09:02:28;;;;;;;11.10;3.40;;;15.50;99.90;;;;;;4981983;28;20813;-84
2022/09/15 09:05:10;;;;;;;3.40;2.67;;;15.50;99.90;;;;;;4987641;28;20600;-82
2022/09/15 09:08:06;;;;;;;4.60;3.03;;;15.40;99.90;;;;;;4987574;28;21008;-82
2022/09/15 09:10:37;;;;;;;5.80;3.47;;;15.30;99.90;;;;;;4996977;28;20434;-84
2022/09/15 09:13:14;;;;;;;5.83;5.13;;;15.30;99.90;;;;;;4997887;28;20468;-83
2022/09/15 09:16:03;;;;;;;6.60;4.07;;;15.30;99.90;;;;;;5001760;28;20474;-83
2022/09/15 09:18:46;;;;;;;7.67;4.30;;;15.30;99.90;;;;;;4998639;28;20434;-83
2022/09/15 09:21:12;;;;;;;7.27;3.83;;;15.30;99.90;;;;;;5001027;28;20944;-82
2022/09/15 09:24:18;;;;;;;11.60;3.97;;;15.20;99.90;;;;;;4991860;28;20422;-82
2022/09/15 09:26:49;;;;;;;7.50;4.27;;;15.20;99.90;;;;;;4943581;28;20210;-82
2022/09/15 09:29:22;;;;;;;5.83;3.50;;;15.20;99.90;;;;;;4989853;28;20838;-82
2022/09/15 09:31:51;;;;;;;6.77;4.23;;;15.20;99.90;;;;;;4997612;28;20437;-83
2022/09/15 09:34:31;;;;;;;5.53;4.40;;;15.10;99.90;;;;;;4991299;28;20461;-81
2022/09/15 09:36:59;;;;;;;8.03;4.23;;;15.10;99.90;;;;;;4989363;28;20514;-82
2022/09/15 09:39:26;;;;;;;12.50;5.27;;;15.10;99.90;;;;;;4987641;28;20425;-81
2022/09/15 09:41:53;;;;;;;8.57;4.90;;;15.10;99.90;;;;;;5000227;28;20438;-82
2022/09/15 09:44:19;;;;;;;7.73;4.30;;;15.10;99.90;;;;;;5000940;28;20505;-81
2022/09/15 09:46:46;;;;;;;5.70;3.60;;;15.10;99.90;;;;;;4980274;28;20456;-82
2022/09/15 09:49:19;;;;;;;6.73;4.67;;;15.00;99.90;;;;;;5000201;28;20441;-83
2022/09/15 09:51:51;;;;;;;9.33;4.13;;;15.00;99.90;;;;;;4997421;28;20428;-80
2022/09/15 09:54:19;;;;;;;11.30;4.50;;;15.00;99.90;;;;;;4994574;28;20530;-80
2022/09/15 09:56:46;;;;;;;7.20;4.73;;;14.90;99.90;;;;;;4994421;28;20473;-83
2022/09/15 09:59:38;;;;;;;8.97;4.37;;;15.00;99.90;;;;;;4985678;28;20429;-83
2022/09/15 10:02:12;;;;;;;5.37;4.17;;;15.10;99.90;;;;;;4995969;28;20434;-84
2022/09/15 10:04:39;;;;;;;9.33;4.37;;;15.20;99.90;;;;;;4996340;28;20444;-83
2022/09/15 10:07:06;;;;;;;6.70;4.00;;;15.20;99.90;;;;;;4990829;28;20454;-82
2022/09/15 10:09:31;;;;;;;12.03;4.40;;;15.20;99.90;;;;;;4987554;28;20503;-80
2022/09/15 10:12:00;;;;;;;14.53;5.37;;;15.10;99.90;;;;;;4988464;28;20422;-82
2022/09/15 10:14:25;;;;;;;11.17;5.47;;;15.00;99.90;;;;;;4996836;28;20191;-81
2022/09/15 10:16:55;;;;;;;11.20;6.00;;;14.80;99.90;;;;;;4978506;28;20472;-83
2022/09/15 10:19:20;;;;;;;5.47;4.93;;;14.70;99.90;;;;;;4998665;28;20233;-82
2022/09/15 10:21:46;;;;;;;9.23;5.67;;;14.70;99.90;;;;;;4985150;28;20858;-86
2022/09/15 10:24:37;;;;;;;14.10;6.00;;;14.70;99.90;;;;;;4986399;28;20216;-82
2022/09/15 10:27:07;;;;;;;11.50;6.33;;;14.70;99.90;;;;;;4992754;28;20198;-83
2022/09/15 10:29:38;;;;;;;12.07;5.80;;;14.60;99.90;;;;;;4999929;28;20540;-83
2022/09/15 10:32:30;;;;;;;9.10;5.67;;;14.50;99.90;;;;;;4984990;28;20440;-82
2022/09/15 10:35:10;;;;;;;8.63;5.83;;;14.50;99.90;;;;;;4981472;28;20458;-82
2022/09/15 10:37:54;;;;;;;12.07;7.97;;;14.50;99.90;;;;;;5000365;28;20511;-84
2022/09/15 10:40:55;;;;;;;9.70;6.33;;;14.60;99.90;;;;;;4993681;28;20448;-82
2022/09/15 10:43:33;;;;;;;14.40;8.20;;;14.70;99.90;;;;;;4982846;28;20436;-87
2022/09/15 10:46:07;;;;;;;11.87;7.90;;;14.60;99.90;;;;;;5000976;28;20453;-84
2022/09/15 10:48:54;;;;;;;13.23;7.93;;;14.80;99.90;;;;;;4980877;28;20435;-83
2022/09/15 10:51:48;;;;;;;13.77;8.73;;;14.70;99.90;;;;;;4993639;28;20519;-83
2022/09/15 10:54:48;;;;;;;8.47;6.90;;;14.70;99.90;;;;;;4991263;28;20428;-82
2022/09/15 10:57:42;;;;;;;11.33;7.30;;;14.80;99.90;;;;;;4991145;28;20952;-83
2022/09/15 11:00:11;;;;;;;9.03;7.07;;;14.70;99.90;;;;;;5000006;28;20432;-80
2022/09/15 11:03:26;;;;;;;11.27;6.10;;;14.70;99.90;;;;;;4991036;28;20433;-81
2022/09/15 11:06:15;;;;;;;8.80;6.53;;;14.80;99.90;;;;;;4983448;28;20525;-84
2022/09/15 11:09:19;;;;;;;9.47;6.73;;;14.80;99.90;;;;;;4991895;28;20977;-81
2022/09/15 11:12:01;;;;;;;16.53;6.77;;;15.00;99.90;;;;;;4984502;28;20977;-84
2022/09/15 11:14:39;;;;;;;9.83;7.00;;;15.10;99.90;;;;;;5002051;28;20450;-86
2022/09/15 11:17:17;;;;;;;10.10;6.80;;;15.20;99.90;;;;;;4990159;28;20495;-83
2022/09/15 11:20:08;;;;;;;8.13;5.70;;;14.90;99.90;;;;;;4991563;28;20433;-84
2022/09/15 11:22:54;;;;;;;7.50;6.77;;;15.00;99.90;;;;;;5004670;28;20441;-82
2022/09/15 11:25:23;;;;;;;9.07;6.33;;;14.50;99.90;;;;;;5001294;28;20536;-82
2022/09/15 11:27:59;;;;;;;12.60;7.07;;;15.10;99.90;;;;;;4991508;28;21005;-84
2022/09/15 11:30:36;;;;;;;14.10;6.43;;;15.30;99.90;;;;;;5001241;28;20456;-84
2022/09/15 11:33:10;;;;;;;14.43;6.90;;;15.30;99.90;;;;;;5000498;28;20540;-83
2022/09/15 11:35:38;;;;;;;12.07;7.57;;;15.30;99.90;;;;;;4987321;28;20472;-84
2022/09/15 11:38:41;;;;;;;12.33;5.77;;;15.20;99.90;;;;;;5000028;28;20476;-84
2022/09/15 11:41:29;;;;;;;9.17;6.33;;;15.20;99.90;;;;;;4903783;29;20443;-83
2022/09/15 11:44:05;;;;;;;10.93;5.80;;;15.10;99.90;;;;;;4995991;28;20445;-83
2022/09/15 11:47:02;;;;;;;21.33;7.17;;;15.30;99.90;;;;;;4987755;28;20468;-82
2022/09/15 11:49:38;;;;;;;10.70;7.07;;;15.30;99.90;;;;;;4990976;28;20445;-84
2022/09/15 11:52:12;;;;;;;10.27;7.80;;;15.50;99.90;;;;;;4983944;28;20434;-85
2022/09/15 11:54:52;;;;;;;8.67;7.10;;;15.40;99.90;;;;;;5001048;28;20424;-83
2022/09/15 11:57:24;;;;;;;8.17;7.23;;;15.90;99.90;;;;;;5002689;28;20469;-82
2022/09/15 11:59:57;;;;;;;14.20;5.90;;;16.30;99.90;;;;;;5001653;28;20458;-83
2022/09/15 12:02:44;;;;;;;7.70;6.37;;;16.30;99.90;;;;;;4990691;28;20441;-83
2022/09/15 12:05:25;;;;;;;7.67;6.80;;;16.40;99.90;;;;;;4998767;28;20454;-84
2022/09/15 12:08:03;;;;;;;9.63;6.33;;;16.50;99.90;;;;;;4988941;28;20540;-84
2022/09/15 12:10:35;;;;;;;14.03;7.60;;;16.40;99.90;;;;;;4989296;28;20592;-84
2022/09/15 12:13:01;;;;;;;10.50;6.33;;;;;;;;;;4983135;28;21020;-81
2022/09/15 12:15:28;;;;;;;11.87;6.77;;;;;;;;;;4998616;28;20887;-83
2022/09/15 12:18:13;;;;;;;10.53;6.37;;;16.90;99.90;;;;;;4999571;28;20425;-82
2022/09/15 12:20:47;;;;;;;10.00;6.47;;;16.90;99.90;;;;;;4988540;28;20442;-86
2022/09/15 12:23:20;;;;;;;13.30;8.10;;;16.70;99.90;;;;;;4986115;28;20980;-85
2022/09/15 12:26:14;;;;;;;11.47;7.90;;;17.70;99.90;;;;;;4980078;28;20448;-84
2022/09/15 12:28:53;;;;;;;11.17;7.40;;;17.70;99.90;;;;;;4995529;28;20437;-83
2022/09/15 12:31:40;;;;;;;8.40;7.30;;;18.00;99.90;;;;;;4976168;28;20473;-85
2022/09/15 12:34:23;;;;;;;20.77;9.57;;;18.00;99.90;;;;;;4976938;28;20917;-84
2022/09/15 12:36:52;;;;;;;13.17;8.23;;;17.80;99.90;;;;;;4987514;28;20469;-82
2022/09/15 12:39:23;;;;;;;11.03;7.80;;;17.30;99.90;;;;;;4979681;28;20520;-84
2022/09/15 12:41:51;;;;;;;12.83;8.33;;;17.00;99.90;;;;;;4995437;28;21001;-86
2022/09/15 12:44:30;;;;;;;12.40;7.60;;;16.90;99.90;;;;;;4996870;28;20430;-84
2022/09/15 12:46:57;;;;;;;14.67;7.40;;;16.90;99.90;;;;;;4993482;28;20496;-83
2022/09/15 12:49:30;;;;;;;10.70;8.43;;;16.90;99.90;;;;;;4978408;28;20564;-84
2022/09/15 12:51:57;;;;;;;11.93;7.20;;;17.00;99.90;;;;;;4990628;28;21031;-82
2022/09/15 12:54:28;;;;;;;13.10;8.30;;;17.20;99.90;;;;;;4996487;28;20441;-83
2022/09/15 12:56:54;;;;;;;7.73;6.37;;;17.50;99.90;;;;;;5010589;23;20506;-84
2022/09/15 12:59:24;;;;;;;14.00;5.07;;;17.50;99.90;;;;;;5020010;28;20450;-88
2022/09/15 13:01:51;;;;;;;8.30;5.97;;;17.30;99.90;;;;;;4995517;28;21085;-86
2022/09/15 13:04:40;;;;;;;8.63;7.17;;;17.40;99.90;;;;;;4973918;28;20466;-85
2022/09/15 13:07:14;;;;;;;7.13;5.40;;;17.40;99.90;;;;;;4952412;28;20443;-85
2022/09/15 13:09:55;;;;;;;14.20;6.40;;;17.20;99.90;;;;;;4995603;28;20446;-85
2022/09/15 13:12:23;;;;;;;9.10;5.83;;;17.00;99.90;;;;;;4976837;28;20484;-85
2022/09/15 13:14:52;;;;;;;8.30;7.50;;;16.80;99.90;;;;;;4970133;28;20477;-85
2022/09/15 13:17:22;;;;;;;10.93;7.57;;;16.90;99.90;;;;;;4977343;28;20529;-86
2022/09/15 13:19:52;;;;;;;11.27;8.10;;;17.00;99.90;;;;;;4961057;28;20434;-83
2022/09/15 13:22:30;;;;;;;10.33;9.30;;;17.10;99.90;;;;;;4964776;28;20459;-89
2022/09/15 13:25:14;;;;;;;11.57;8.63;;;17.70;99.90;;;;;;4980688;28;20468;-84
2022/09/15 13:27:56;;;;;;;12.13;7.53;;;18.10;99.90;;;;;;4972138;28;21063;-82
2022/09/15 13:30:59;;;;;;;10.93;7.03;;;18.40;99.90;;;;;;4976623;28;21522;-82
2022/09/15 13:33:55;;;;;;;9.10;7.43;;;18.30;99.90;;;;;;4994520;28;20520;-86
2022/09/15 13:36:30;;;;;;;13.60;7.03;;;18.10;99.90;;;;;;5012624;23;20496;-87
2022/09/15 13:38:56;;;;;;;7.63;6.63;;;;;;;;;;5005660;28;20441;-88
2022/09/15 13:42:05;;;;;;;7.73;6.00;;;18.00;99.90;;;;;;5009450;28;20460;-87
2022/09/15 13:44:56;;;;;;;8.07;5.70;;;18.10;99.90;;;;;;5022264;28;20448;-87
2022/09/15 13:47:43;;;;;;;6.27;5.67;;;18.30;99.90;;;;;;4982300;28;20664;-88
2022/09/15 13:50:22;;;;;;;6.87;5.27;;;18.20;99.90;;;;;;4986723;28;20434;-87